Yeager Airport Charleston US
ICAO: KCRW
IATA: CRW
Category: Large
Scheduled Services: Yes

Elevation: 981 ft
TransAlt. 18000 ft.

Airport Communications:
CHARLESTON APP/DEP:128.5
ATIS:127.6
CLNC DEL:118.55
GND:121.8
ANG COMD POST/OPS:30.23
ELKINS RDO:122.2
CHARLESTON TWR:125.7
UNICOM:122.95

KCRW Zoom In..

If you have problems with the map follow the link
https://www.worldairports.se/pages/airport.php?
ICAO=KCRW

Runways:

(A) RW 05 length 6802 ft width 150 ft
ILS 110.30 / hdg 53

(B) RW 23 length 6802 ft width 150 ft
ILS 110.30 / hdg 233

Location; KCRW
Day. 18 / Time. 01.54 Zulu
* Altimeter: 29.74
* Temperature: 09° c. 48.2°f.
* Wind from: 270° Speed 03 kn.
Dewpoint: 09° c.
Visibility: 7 Statute Miles.
Clouds: Few 100 ft.
Clouds: Broken 600 ft.
Clouds: Overcast 2600 ft.
Conditions: Light Rain.

KCRW 180154Z 27003KT 7SM -RA FEW001 BKN006 OVC026 09/09 A2974 RMK AO2 SLP073 P0003 T00940094 $


Wind From 270°
Speed 03 kn.

 
 
jpsmedia.com for Web Design worldairports.se 2019   terms of use